Fernley, NV (89408)

12:39 AM PDT on August 05, 2015 (GMT -0700)
CW2857 - Trinity Alarms - Sage Valley Estates | | Change Station
CLOSE
Current Station
Personal Weather Station
Location: Fernley, NV
Elevation: 4210 ft
Nearby Weather Stations

Elev 4210 ft 39.60 °N, 119.23 °W | Updated 14 minutes ago

Overcast
Overcast
72.7 °F
Feels Like 76 °F
N
5.0
Wind Variable Wind from NNW
Gusts 12.0 mph

Today
High -- | Low -- °F
--% Chance of Precip.
Yesterday
High -- | Low -- °F
Precip. -- in
5:59 AM 8:05 PM
Waning Gibbous, 70% visible
Pressure 29.89 in
Visibility 10.0 miles
Clouds Scattered Clouds 12000 ft
Scattered Clouds 18000 ft
Heat Index 76 °F
Dew Point 37 °F
Humidity 27%
Rainfall 0.00 in
Snow Depth Not available.
UV 0 out of 12
Pollen 6.30 out of 12
Air Quality Not available.
Flu Activity Not available.
METAR KRNO 050655Z 04005KT 10SM SCT120 SCT180 22/07 A3007 RMK AO2 SLP120 T02170067

More Conditions Fewer Conditions

Pressure 29.89 in
Visibility 10.0 miles
Clouds Scattered Clouds 12000 ft
Scattered Clouds 18000 ft
Heat Index 76 °F
Dew Point 37 °F
Humidity 27%
Rainfall 0.00 in
Snow Depth Not available.
UV 0 out of 12
Pollen 6.30 out of 12
Air Quality Not available.
Flu Activity Not available.
METAR KRNO 050655Z 04005KT 10SM SCT120 SCT180 22/07 A3007 RMK AO2 SLP120 T02170067

More Conditions Fewer Conditions

10-Day Weather Forecast

×

Almanac

Astronomy

Aug. 05, 2015 Rise Set
Actual Time
Civil Twilight
Nautical Twilight
Astronomical Twilight
Moon
Length of Visible Light
Length of Day
Tomorrow will be .
, % of the Moon is Illuminated

Today's Extremes

State Highs State Lows

Community

WunderPhotos

Upload Photos

1,844,105 photos uploaded!

WunderBlogs® & News

Nearby

Air Quality

  Air Quality AQ Index Pollutant
Not available.

Snow Depth

Station Depth Elevation

Earthquake Activity

City Distance Mag. Time & Date
Minimum magnitude displayed is 2.5.

Coastal Water Temperatures

Place Temperature

Stations

Nearby Weather Stations

Station Location Temp. Windchill Dew Point Humidity Wind Precip. Elev Updated Type